createdAt,value
2018-11-21T00:01:56.615Z,23.07
2018-11-21T00:07:42.734Z,23.17
2018-11-21T00:10:42.599Z,23.03
2018-11-21T00:16:08.687Z,23.77
2018-11-21T00:18:49.228Z,23.60
2018-11-21T00:21:30.282Z,22.10
2018-11-21T00:24:11.086Z,22.97
2018-11-21T00:30:13.050Z,22.67
2018-11-21T00:35:45.654Z,22.23
2018-11-21T00:41:32.180Z,21.17
2018-11-21T00:44:12.976Z,22.50
2018-11-21T00:46:54.060Z,22.32
2018-11-21T00:49:34.980Z,22.30
2018-11-21T00:54:58.374Z,22.67
2018-11-21T00:57:39.475Z,22.87
2018-11-21T01:00:19.915Z,22.40
2018-11-21T01:03:00.708Z,23.20
2018-11-21T01:08:46.987Z,22.23
2018-11-21T01:11:27.851Z,21.83
2018-11-21T01:14:08.507Z,22.47
2018-11-21T01:16:49.747Z,23.23
2018-11-21T01:19:30.888Z,22.03
2018-11-21T01:22:30.971Z,23.40
2018-11-21T01:25:11.417Z,23.40
2018-11-21T01:30:57.353Z,22.80
2018-11-21T01:33:38.465Z,23.10
2018-11-21T01:36:18.938Z,23.87
2018-11-21T01:41:49.614Z,23.10
2018-11-21T01:47:35.739Z,23.60
2018-11-21T01:50:23.024Z,24.43
2018-11-21T01:53:04.293Z,23.27
2018-11-21T01:59:04.611Z,24.17
2018-11-21T02:01:46.006Z,23.93
2018-11-21T02:04:27.314Z,24.27
2018-11-21T02:07:27.367Z,23.97
2018-11-21T02:16:17.185Z,25.33
2018-11-21T02:18:57.926Z,24.10
2018-11-21T02:21:38.775Z,24.97
2018-11-21T02:24:19.767Z,24.97
2018-11-21T02:27:00.234Z,25.07
2018-11-21T02:30:00.565Z,25.50
2018-11-21T02:32:41.119Z,25.33
2018-11-21T02:38:06.301Z,26.07
2018-11-21T02:43:51.308Z,25.77
2018-11-21T02:46:39.144Z,24.83
2018-11-21T02:49:42.148Z,26.00
2018-11-21T02:52:22.636Z,25.17
2018-11-21T02:55:03.594Z,27.43
2018-11-21T03:00:27.281Z,27.87
2018-11-21T03:03:08.321Z,26.90
2018-11-21T03:05:49.385Z,27.60
2018-11-21T03:08:34.222Z,26.97
2018-11-21T03:14:39.381Z,27.13
2018-11-21T03:17:20.328Z,26.90
2018-11-21T03:20:13.755Z,26.37
2018-11-21T03:29:22.549Z,26.40
2018-11-21T03:32:22.940Z,27.67
2018-11-21T03:38:07.599Z,27.70
2018-11-21T03:43:35.279Z,27.43
2018-11-21T03:46:23.084Z,28.30
2018-11-21T03:49:05.370Z,29.63
2018-11-21T03:51:45.875Z,28.30
2018-11-21T03:57:11.393Z,30.33
2018-11-21T04:03:29.160Z,30.67
2018-11-21T04:11:55.837Z,29.13
2018-11-21T04:20:26.743Z,28.27
2018-11-21T04:23:07.218Z,28.33
2018-11-21T04:29:23.549Z,29.23
2018-11-21T04:32:24.128Z,28.30
2018-11-21T04:35:06.300Z,29.03
2018-11-21T04:46:38.332Z,28.23
2018-11-21T05:07:33.703Z,28.80
2018-11-21T05:10:14.583Z,28.90
2018-11-21T05:27:28.659Z,28.27
2018-11-21T05:39:11.918Z,27.97
2018-11-21T05:41:52.539Z,28.67
2018-11-21T05:44:33.459Z,27.47
2018-11-21T05:59:11.453Z,27.70
2018-11-21T06:01:53.097Z,28.50
2018-11-21T06:11:01.306Z,28.00
2018-11-21T06:16:59.598Z,27.23
2018-11-21T06:22:45.220Z,29.07
2018-11-21T06:28:32.736Z,30.10
2018-11-21T06:31:20.923Z,30.77
2018-11-21T06:46:24.844Z,34.53
2018-11-21T06:52:56.279Z,34.43
2018-11-21T06:55:44.157Z,33.87
2018-11-21T07:01:26.562Z,33.00
2018-11-21T07:04:26.446Z,35.47
2018-11-21T07:10:20.876Z,37.40
2018-11-21T07:24:45.766Z,37.50
2018-11-21T07:27:27.984Z,37.30
2018-11-21T07:30:08.626Z,36.87
2018-11-21T07:33:08.301Z,38.13
2018-11-21T07:45:26.181Z,40.03
2018-11-21T08:01:03.520Z,39.90
2018-11-21T08:04:10.422Z,41.40
2018-11-21T08:07:10.205Z,38.83
2018-11-21T08:10:12.408Z,38.97
2018-11-21T08:31:42.899Z,30.93
2018-11-21T08:34:46.228Z,31.20
2018-11-21T08:37:27.377Z,30.40
2018-11-21T08:40:08.254Z,31.63
2018-11-21T08:42:48.589Z,31.50
2018-11-21T08:45:48.877Z,31.70
2018-11-21T08:51:19.318Z,30.43
2018-11-21T08:57:17.990Z,29.10
2018-11-21T08:59:59.234Z,29.60
2018-11-21T09:08:37.119Z,28.20
2018-11-21T09:11:18.042Z,28.50
2018-11-21T09:13:59.038Z,28.50
2018-11-21T09:16:39.974Z,29.23
2018-11-21T09:22:25.655Z,28.10
2018-11-21T09:25:06.841Z,26.03
2018-11-21T09:28:06.278Z,26.47
2018-11-21T09:33:29.476Z,26.53
2018-11-21T09:39:15.841Z,26.10
2018-11-21T09:41:56.577Z,26.30
2018-11-21T09:44:37.219Z,25.47
2018-11-21T09:50:35.919Z,25.63
2018-11-21T09:53:16.906Z,27.13
2018-11-21T09:59:07.119Z,25.57
2018-11-21T10:01:47.443Z,25.87
2018-11-21T10:04:28.038Z,25.30
2018-11-21T10:07:10.168Z,24.33
2018-11-21T10:09:51.661Z,25.57
2018-11-21T10:12:32.963Z,25.60
2018-11-21T10:15:13.359Z,25.30
2018-11-21T10:21:00.558Z,25.43
2018-11-21T10:26:45.119Z,25.60
2018-11-21T10:32:08.823Z,25.60
2018-11-21T10:34:50.144Z,25.60
2018-11-21T10:37:31.295Z,25.13
2018-11-21T10:40:10.312Z,26.23
2018-11-21T10:42:58.154Z,24.73
2018-11-21T10:45:39.320Z,25.30
2018-11-21T10:48:20.250Z,24.83
2018-11-21T10:51:00.962Z,25.23
2018-11-21T10:54:00.973Z,24.67
2018-11-21T10:56:41.578Z,26.37
2018-11-21T10:59:22.610Z,25.63
2018-11-21T11:02:22.986Z,23.93
2018-11-21T11:08:30.846Z,24.87
2018-11-21T11:11:32.012Z,24.27
2018-11-21T11:17:17.519Z,24.10
2018-11-21T11:20:20.632Z,24.07
2018-11-21T11:23:19.955Z,24.33
2018-11-21T11:26:20.075Z,23.70
2018-11-21T11:29:19.971Z,23.63
2018-11-21T11:32:20.598Z,23.00
2018-11-21T11:35:20.087Z,22.90
2018-11-21T11:38:13.266Z,22.73
2018-11-21T11:41:13.023Z,24.10
2018-11-21T11:44:12.486Z,24.40
2018-11-21T11:50:19.145Z,22.60
2018-11-21T11:53:21.869Z,22.70
2018-11-21T11:59:33.491Z,21.50
2018-11-21T12:02:36.037Z,21.73
2018-11-21T12:05:34.237Z,21.33
2018-11-21T12:08:35.017Z,22.23
2018-11-21T12:11:35.223Z,23.03
2018-11-21T12:14:35.415Z,21.43
2018-11-21T12:17:34.823Z,20.87
2018-11-21T12:20:34.568Z,21.03
2018-11-21T12:23:34.442Z,20.70
2018-11-21T12:26:29.660Z,20.00
2018-11-21T12:29:32.218Z,18.90
2018-11-21T12:32:39.269Z,18.53
2018-11-21T12:35:36.092Z,20.50
2018-11-21T12:38:35.963Z,19.57
2018-11-21T12:41:20.309Z,20.87
2018-11-21T12:44:23.193Z,20.10
2018-11-21T12:47:22.928Z,20.57
2018-11-21T12:53:25.663Z,20.07
2018-11-21T12:56:28.492Z,19.93
2018-11-21T12:59:27.929Z,18.60
2018-11-21T13:05:37.761Z,19.10
2018-11-21T13:08:27.595Z,19.63
2018-11-21T13:11:30.691Z,20.70
2018-11-21T13:14:30.502Z,19.60
2018-11-21T13:20:32.109Z,20.23
2018-11-21T13:23:25.716Z,19.97
2018-11-21T13:32:41.446Z,18.37
2018-11-21T13:35:41.460Z,18.50
2018-11-21T13:38:37.925Z,17.50
2018-11-21T13:41:38.557Z,17.13
2018-11-21T13:44:28.427Z,17.40
2018-11-21T13:47:22.163Z,16.33
2018-11-21T13:50:21.691Z,15.13
2018-11-21T13:53:21.486Z,14.20
2018-11-21T13:56:01.865Z,13.97
2018-11-21T13:58:42.603Z,15.03
2018-11-21T14:01:23.655Z,16.87
2018-11-21T14:04:04.313Z,16.43
2018-11-21T14:06:45.387Z,16.17
2018-11-21T14:09:26.417Z,16.20
2018-11-21T14:12:07.290Z,14.97
2018-11-21T14:14:48.042Z,14.23
2018-11-21T14:17:29.218Z,15.50
2018-11-21T14:20:10.110Z,14.37
2018-11-21T14:22:50.546Z,13.70
2018-11-21T14:25:31.623Z,13.33
2018-11-21T14:28:12.669Z,13.00
2018-11-21T14:30:53.678Z,14.27
2018-11-21T14:33:34.905Z,15.13
2018-11-21T14:36:13.782Z,14.57
2018-11-21T14:39:02.329Z,15.63
2018-11-21T14:41:44.263Z,14.83
2018-11-21T14:44:25.204Z,15.90
2018-11-21T14:47:06.174Z,16.67
2018-11-21T14:49:46.775Z,14.77
2018-11-21T14:52:28.051Z,16.40
2018-11-21T14:55:08.892Z,16.63
2018-11-21T14:57:49.890Z,16.03
2018-11-21T15:06:28.791Z,15.93
2018-11-21T15:09:10.479Z,17.70
2018-11-21T15:11:49.381Z,17.57
2018-11-21T15:14:37.266Z,17.40
2018-11-21T15:17:18.315Z,17.13
2018-11-21T15:23:06.881Z,17.63
2018-11-21T15:25:49.320Z,17.87
2018-11-21T15:31:31.478Z,17.37
2018-11-21T15:34:19.372Z,17.97
2018-11-21T15:37:00.113Z,17.10
2018-11-21T15:42:51.134Z,18.97
2018-11-21T15:45:32.491Z,19.17
2018-11-21T15:48:12.860Z,20.47
2018-11-21T15:50:54.070Z,19.17
2018-11-21T15:53:35.071Z,19.40
2018-11-21T15:56:15.840Z,18.60
2018-11-21T15:58:56.910Z,19.50
2018-11-21T16:01:37.289Z,20.63
2018-11-21T16:04:18.142Z,18.33
2018-11-21T16:06:58.903Z,19.57
2018-11-21T16:09:40.121Z,22.20
2018-11-21T16:12:21.255Z,22.37
2018-11-21T16:15:02.568Z,20.33
2018-11-21T16:17:43.761Z,21.60
2018-11-21T16:20:25.001Z,21.50
2018-11-21T16:23:05.588Z,22.70
2018-11-21T16:25:46.794Z,21.43
2018-11-21T16:28:27.474Z,20.73
2018-11-21T16:31:08.154Z,20.80
2018-11-21T16:33:49.171Z,20.77
2018-11-21T16:36:30.011Z,23.80
2018-11-21T16:39:10.595Z,21.50
2018-11-21T16:41:51.878Z,25.03
2018-11-21T16:44:33.065Z,23.57
2018-11-21T16:47:13.509Z,21.93
2018-11-21T16:49:54.822Z,23.03
2018-11-21T16:52:35.757Z,22.73
2018-11-21T16:55:17.804Z,27.10
2018-11-21T16:57:59.543Z,24.43
2018-11-21T17:03:41.764Z,25.17
2018-11-21T17:06:22.599Z,24.47
2018-11-21T17:09:03.020Z,24.80
2018-11-21T17:11:44.134Z,25.43
2018-11-21T17:14:25.046Z,25.70
2018-11-21T17:19:48.169Z,26.30
2018-11-21T17:22:29.153Z,27.50
2018-11-21T17:25:11.844Z,24.07
2018-11-21T17:27:53.134Z,26.60
2018-11-21T17:30:34.344Z,26.80
2018-11-21T17:33:15.286Z,28.50
2018-11-21T17:39:01.738Z,27.67
2018-11-21T17:41:42.800Z,27.70
2018-11-21T17:47:42.978Z,25.63
2018-11-21T17:50:24.120Z,25.57
2018-11-21T17:53:05.596Z,25.57
2018-11-21T17:55:46.695Z,24.57
2018-11-21T17:58:27.642Z,23.97
2018-11-21T18:01:08.860Z,26.63
2018-11-21T18:03:49.341Z,25.70
2018-11-21T18:06:29.663Z,28.93
2018-11-21T18:09:10.888Z,30.03
2018-11-21T18:11:51.360Z,27.60
2018-11-21T18:14:32.716Z,31.00
2018-11-21T18:17:13.999Z,29.27
2018-11-21T18:19:54.793Z,29.70
2018-11-21T18:22:35.538Z,31.47
2018-11-21T18:25:17.958Z,31.37
2018-11-21T18:27:58.810Z,29.63
2018-11-21T18:30:39.686Z,34.67
2018-11-21T18:33:20.371Z,34.57
2018-11-21T18:36:01.150Z,31.30
2018-11-21T18:38:41.571Z,32.47
2018-11-21T18:41:22.451Z,31.53
2018-11-21T18:44:03.586Z,31.97
2018-11-21T18:46:44.616Z,34.10
2018-11-21T18:49:25.414Z,31.87
2018-11-21T18:52:06.153Z,32.63
2018-11-21T18:54:48.017Z,31.97
2018-11-21T18:57:28.931Z,31.93
2018-11-21T19:00:09.412Z,31.53
2018-11-21T19:02:50.313Z,30.47
2018-11-21T19:05:31.144Z,29.77
2018-11-21T19:08:12.408Z,31.37
2018-11-21T19:10:52.970Z,30.30
2018-11-21T19:13:33.800Z,31.20
2018-11-21T19:16:14.480Z,30.53
2018-11-21T19:18:55.180Z,30.10
2018-11-21T19:21:36.214Z,29.93
2018-11-21T19:24:16.821Z,29.10
2018-11-21T19:26:57.290Z,31.37
2018-11-21T19:29:38.127Z,30.30
2018-11-21T19:32:18.944Z,29.83
2018-11-21T19:35:00.029Z,29.00
2018-11-21T19:37:38.948Z,28.77
2018-11-21T19:40:27.084Z,29.97
2018-11-21T19:43:08.321Z,30.43
2018-11-21T19:45:49.114Z,30.77
2018-11-21T19:48:29.627Z,29.73
2018-11-21T19:51:10.714Z,30.40
2018-11-21T19:53:51.168Z,28.33
2018-11-21T19:59:43.529Z,29.03
2018-11-21T20:02:20.343Z,28.50
2018-11-21T20:05:01.614Z,29.13
2018-11-21T20:07:42.761Z,28.27
2018-11-21T20:10:23.831Z,31.10
2018-11-21T20:13:04.385Z,27.33
2018-11-21T20:15:45.292Z,26.43
2018-11-21T20:18:26.488Z,27.53
2018-11-21T20:20:55.065Z,28.33
2018-11-21T20:23:23.548Z,30.57
2018-11-21T20:25:52.038Z,27.03
2018-11-21T20:28:20.519Z,28.23
2018-11-21T20:30:48.964Z,25.73
2018-11-21T20:33:17.488Z,26.20
2018-11-21T20:35:46.257Z,25.10
2018-11-21T20:38:14.841Z,26.27
2018-11-21T20:40:43.330Z,27.80
2018-11-21T20:43:12.062Z,26.23
2018-11-21T20:45:40.625Z,28.60
2018-11-21T20:48:09.126Z,27.53
2018-11-21T20:50:37.630Z,26.87
2018-11-21T20:53:06.162Z,25.70
2018-11-21T20:55:35.110Z,26.50
2018-11-21T20:58:03.590Z,29.90
2018-11-21T21:00:32.488Z,27.87
2018-11-21T21:03:01.302Z,27.17
2018-11-21T21:05:29.860Z,27.07
2018-11-21T21:07:58.297Z,28.67
2018-11-21T21:10:28.755Z,28.13
2018-11-21T21:12:57.119Z,27.07
2018-11-21T21:15:25.594Z,26.37
2018-11-21T21:17:54.127Z,30.13
2018-11-21T21:20:24.076Z,28.50
2018-11-21T21:22:54.867Z,29.77
2018-11-21T21:25:25.292Z,29.20
2018-11-21T21:27:54.390Z,29.57
2018-11-21T21:30:24.760Z,27.57
2018-11-21T21:32:53.220Z,29.17
2018-11-21T21:35:22.771Z,29.03
2018-11-21T21:37:51.254Z,30.13
2018-11-21T21:40:20.523Z,29.37
2018-11-21T21:42:49.307Z,30.23
2018-11-21T21:45:22.200Z,29.27
2018-11-21T21:47:50.662Z,29.77
2018-11-21T21:50:20.745Z,27.60
2018-11-21T21:52:49.229Z,26.77
2018-11-21T21:55:18.781Z,28.50
2018-11-21T21:57:49.235Z,26.93
2018-11-21T22:00:19.272Z,28.80
2018-11-21T22:02:48.136Z,28.80
2018-11-21T22:05:16.841Z,27.47
2018-11-21T22:07:45.582Z,28.87
2018-11-21T22:10:15.103Z,29.30
2018-11-21T22:12:43.533Z,26.90
2018-11-21T22:15:25.826Z,26.93
2018-11-21T22:18:00.318Z,26.50
2018-11-21T22:20:28.802Z,27.23
2018-11-21T22:22:57.327Z,25.00
2018-11-21T22:25:26.188Z,27.37
2018-11-21T22:27:55.032Z,26.80
2018-11-21T22:30:23.973Z,27.30
2018-11-21T22:32:53.505Z,26.60
2018-11-21T22:35:24.988Z,25.97
2018-11-21T22:37:52.263Z,26.57
2018-11-21T22:40:21.347Z,25.57
2018-11-21T22:42:50.199Z,26.27
2018-11-21T22:45:19.884Z,25.80
2018-11-21T22:47:48.620Z,25.80
2018-11-21T22:50:26.492Z,25.97
2018-11-21T22:52:55.242Z,27.07
2018-11-21T22:55:24.134Z,26.00
2018-11-21T22:57:53.227Z,26.07
2018-11-21T23:00:40.268Z,25.10
2018-11-21T23:03:09.065Z,24.63
2018-11-21T23:05:37.810Z,24.57
2018-11-21T23:08:06.578Z,22.87
2018-11-21T23:10:35.858Z,24.47
2018-11-21T23:13:04.339Z,23.20
2018-11-21T23:15:32.809Z,24.20
2018-11-21T23:18:01.290Z,24.23
2018-11-21T23:20:30.146Z,24.50
2018-11-21T23:22:58.586Z,24.37
2018-11-21T23:25:27.093Z,25.77
2018-11-21T23:27:55.625Z,23.13
2018-11-21T23:30:24.138Z,24.93
2018-11-21T23:32:52.678Z,23.73
2018-11-21T23:35:21.598Z,23.73
2018-11-21T23:37:50.386Z,25.10
2018-11-21T23:40:18.894Z,23.30
2018-11-21T23:42:48.931Z,24.83
2018-11-21T23:45:17.757Z,22.70
2018-11-21T23:47:46.523Z,24.17
2018-11-21T23:50:16.433Z,24.60
2018-11-21T23:52:45.189Z,23.83
2018-11-21T23:55:15.922Z,23.67
2018-11-21T23:57:44.732Z,24.70
